createdAt,value
2019-01-19T00:00:32.370Z,431.20
2019-01-19T00:01:32.356Z,431.00
2019-01-19T00:02:32.352Z,431.08
2019-01-19T00:03:32.312Z,430.73
2019-01-19T00:04:32.320Z,431.23
2019-01-19T00:05:32.315Z,430.93
2019-01-19T00:06:32.292Z,431.13
2019-01-19T00:07:32.318Z,431.28
2019-01-19T00:08:32.275Z,431.21
2019-01-19T00:09:32.260Z,432.14
2019-01-19T00:10:32.238Z,431.98
2019-01-19T00:11:32.322Z,431.39
2019-01-19T00:12:32.237Z,431.43
2019-01-19T00:13:32.287Z,431.88
2019-01-19T00:14:32.232Z,431.14
2019-01-19T00:15:32.197Z,431.51
2019-01-19T00:16:32.184Z,430.81
2019-01-19T00:17:32.184Z,431.71
2019-01-19T00:18:32.181Z,431.12
2019-01-19T00:19:32.172Z,431.10
2019-01-19T00:20:32.144Z,431.71
2019-01-19T00:21:32.184Z,431.27
2019-01-19T00:22:32.119Z,431.89
2019-01-19T00:23:32.126Z,431.43
2019-01-19T00:24:32.131Z,431.40
2019-01-19T00:25:32.117Z,431.20
2019-01-19T00:26:32.075Z,431.31
2019-01-19T00:27:32.065Z,431.31
2019-01-19T00:28:32.050Z,431.18
2019-01-19T00:29:32.047Z,431.06
2019-01-19T00:30:32.061Z,431.70
2019-01-19T00:31:32.076Z,430.53
2019-01-19T00:32:32.009Z,431.78
2019-01-19T00:33:32.000Z,430.85
2019-01-19T00:34:34.187Z,431.05
2019-01-19T00:35:31.995Z,430.73
2019-01-19T00:36:32.066Z,431.38
2019-01-19T00:37:31.976Z,430.70
2019-01-19T00:38:31.961Z,431.06
2019-01-19T00:39:32.011Z,431.21
2019-01-19T00:40:31.967Z,430.91
2019-01-19T00:41:31.938Z,430.36
2019-01-19T00:42:31.922Z,431.18
2019-01-19T00:43:31.909Z,431.42
2019-01-19T00:44:31.886Z,432.19
2019-01-19T00:45:31.881Z,430.89
2019-01-19T00:46:31.878Z,431.42
2019-01-19T00:47:31.858Z,431.02
2019-01-19T00:48:31.852Z,430.72
2019-01-19T00:49:31.858Z,430.88
2019-01-19T00:50:31.818Z,431.36
2019-01-19T00:51:31.845Z,430.87
2019-01-19T00:52:31.801Z,431.34
2019-01-19T00:53:31.788Z,431.51
2019-01-19T00:54:31.793Z,430.92
2019-01-19T00:55:31.786Z,431.74
2019-01-19T00:56:31.756Z,431.26
2019-01-19T00:57:31.755Z,431.90
2019-01-19T00:58:31.758Z,431.36
2019-01-19T00:59:31.754Z,431.87
2019-01-19T01:00:31.770Z,431.26
2019-01-19T01:01:31.710Z,431.71
2019-01-19T01:02:31.698Z,431.39
2019-01-19T01:03:31.701Z,431.92
2019-01-19T01:04:31.701Z,430.80
2019-01-19T01:05:31.684Z,431.01
2019-01-19T01:06:31.667Z,431.80
2019-01-19T01:07:31.679Z,430.58
2019-01-19T01:08:31.659Z,431.44
2019-01-19T01:09:31.631Z,431.18
2019-01-19T01:10:31.622Z,431.90
2019-01-19T01:11:31.664Z,431.89
2019-01-19T01:12:31.609Z,430.76
2019-01-19T01:13:31.621Z,431.14
2019-01-19T01:14:31.570Z,431.17
2019-01-19T01:15:31.635Z,431.98
2019-01-19T01:16:31.579Z,431.19
2019-01-19T01:17:31.599Z,431.93
2019-01-19T01:18:31.534Z,431.52
2019-01-19T01:19:31.504Z,430.82
2019-01-19T01:20:31.515Z,431.38
2019-01-19T01:21:31.496Z,430.85
2019-01-19T01:22:31.482Z,431.18
2019-01-19T01:23:31.501Z,431.22
2019-01-19T01:24:31.477Z,432.04
2019-01-19T01:25:31.444Z,430.57
2019-01-19T01:26:31.509Z,431.89
2019-01-19T01:27:31.432Z,431.47
2019-01-19T01:28:31.447Z,430.80
2019-01-19T01:29:31.427Z,432.23
2019-01-19T01:30:31.392Z,431.55
2019-01-19T01:31:31.397Z,432.57
2019-01-19T01:32:31.395Z,430.73
2019-01-19T01:33:31.364Z,430.62
2019-01-19T01:34:31.388Z,430.99
2019-01-19T01:35:32.742Z,431.55
2019-01-19T01:36:31.347Z,430.70
2019-01-19T01:37:31.330Z,431.17
2019-01-19T01:38:31.322Z,432.08
2019-01-19T01:39:31.302Z,431.38
2019-01-19T01:40:31.305Z,430.84
2019-01-19T01:41:31.296Z,431.56
2019-01-19T01:42:31.264Z,430.76
2019-01-19T01:43:31.269Z,431.49
2019-01-19T01:44:31.254Z,431.13
2019-01-19T01:45:31.245Z,430.78
2019-01-19T01:46:31.238Z,431.19
2019-01-19T01:47:31.246Z,431.43
2019-01-19T01:48:31.211Z,431.28
2019-01-19T01:49:31.202Z,432.26
2019-01-19T01:50:31.184Z,431.02
2019-01-19T01:51:31.182Z,431.41
2019-01-19T01:52:31.163Z,431.70
2019-01-19T01:53:31.276Z,430.93
2019-01-19T01:54:31.147Z,430.97
2019-01-19T01:55:31.134Z,431.39
2019-01-19T01:56:31.129Z,431.35
2019-01-19T01:57:31.117Z,431.99
2019-01-19T01:58:31.116Z,431.47
2019-01-19T01:59:31.099Z,431.43
2019-01-19T02:00:31.088Z,430.86
2019-01-19T02:01:31.076Z,431.40
2019-01-19T02:02:31.052Z,431.22
2019-01-19T02:03:31.053Z,431.49
2019-01-19T02:04:31.041Z,431.47
2019-01-19T02:05:31.031Z,431.39
2019-01-19T02:06:31.037Z,431.72
2019-01-19T02:07:31.034Z,430.57
2019-01-19T02:08:30.994Z,431.74
2019-01-19T02:09:30.994Z,430.60
2019-01-19T02:10:30.992Z,431.50
2019-01-19T02:11:30.994Z,431.36
2019-01-19T02:12:30.966Z,430.75
2019-01-19T02:13:30.947Z,430.78
2019-01-19T02:14:30.936Z,431.55
2019-01-19T02:15:30.935Z,431.26
2019-01-19T02:16:30.903Z,430.95
2019-01-19T02:17:30.925Z,430.82
2019-01-19T02:18:30.915Z,431.67
2019-01-19T02:19:30.877Z,431.66
2019-01-19T02:20:30.879Z,431.71
2019-01-19T02:21:30.876Z,431.29
2019-01-19T02:22:30.885Z,431.33
2019-01-19T02:23:30.831Z,430.66
2019-01-19T02:24:30.854Z,431.11
2019-01-19T02:25:30.810Z,431.80
2019-01-19T02:26:30.813Z,431.12
2019-01-19T02:27:30.800Z,431.04
2019-01-19T02:28:30.772Z,431.63
2019-01-19T02:29:30.775Z,431.96
2019-01-19T02:30:30.779Z,431.19
2019-01-19T02:31:30.749Z,431.56
2019-01-19T02:32:30.751Z,431.59
2019-01-19T02:33:30.735Z,430.79
2019-01-19T02:34:30.729Z,431.38
2019-01-19T02:35:30.738Z,431.23
2019-01-19T02:36:30.691Z,431.26
2019-01-19T02:37:30.684Z,432.04
2019-01-19T02:38:30.682Z,430.84
2019-01-19T02:39:30.678Z,431.77
2019-01-19T02:40:30.670Z,431.40
2019-01-19T02:41:30.642Z,431.27
2019-01-19T02:42:30.628Z,431.36
2019-01-19T02:43:30.622Z,432.21
2019-01-19T02:44:30.627Z,431.36
2019-01-19T02:45:30.615Z,431.55
2019-01-19T02:46:30.597Z,431.86
2019-01-19T02:47:30.591Z,431.01
2019-01-19T02:48:30.568Z,431.56
2019-01-19T02:49:30.563Z,431.84
2019-01-19T02:50:30.560Z,431.10
2019-01-19T02:51:30.570Z,431.25
2019-01-19T02:52:30.543Z,431.43
2019-01-19T02:53:30.510Z,431.33
2019-01-19T02:54:30.505Z,432.45
2019-01-19T02:55:30.588Z,432.33
2019-01-19T02:56:30.539Z,431.76
2019-01-19T02:57:30.489Z,431.59
2019-01-19T02:58:30.544Z,431.67
2019-01-19T02:59:30.451Z,431.53
2019-01-19T03:00:30.455Z,432.06
2019-01-19T03:01:30.445Z,430.93
2019-01-19T03:02:30.432Z,431.58
2019-01-19T03:03:30.453Z,431.70
2019-01-19T03:04:30.416Z,431.55
2019-01-19T03:05:30.391Z,431.45
2019-01-19T03:06:30.374Z,430.92
2019-01-19T03:07:30.370Z,431.04
2019-01-19T03:08:30.365Z,431.58
2019-01-19T03:09:30.363Z,431.38
2019-01-19T03:10:30.331Z,430.76
2019-01-19T03:11:30.338Z,431.17
2019-01-19T03:12:30.321Z,431.63
2019-01-19T03:13:30.310Z,431.36
2019-01-19T03:14:30.323Z,430.94
2019-01-19T03:15:31.512Z,431.31
2019-01-19T03:16:30.269Z,431.45
2019-01-19T03:17:30.257Z,431.42
2019-01-19T03:18:30.258Z,432.63
2019-01-19T03:19:30.251Z,432.05
2019-01-19T03:20:30.239Z,430.83
2019-01-19T03:21:30.238Z,431.38
2019-01-19T03:22:30.203Z,431.60
2019-01-19T03:23:30.198Z,431.16
2019-01-19T03:24:30.219Z,429.98
2019-01-19T03:25:30.214Z,431.58
2019-01-19T03:26:30.182Z,431.19
2019-01-19T03:27:30.161Z,431.66
2019-01-19T03:28:30.147Z,431.83
2019-01-19T03:29:30.143Z,431.13
2019-01-19T03:30:30.143Z,431.98
2019-01-19T03:31:30.131Z,430.80
2019-01-19T03:32:30.127Z,431.62
2019-01-19T03:33:30.085Z,431.81
2019-01-19T03:34:30.074Z,431.88
2019-01-19T03:35:30.080Z,432.28
2019-01-19T03:36:30.081Z,430.94
2019-01-19T03:37:30.057Z,431.54
2019-01-19T03:38:30.055Z,431.37
2019-01-19T03:39:30.019Z,431.09
2019-01-19T03:40:30.024Z,431.33
2019-01-19T03:41:30.011Z,431.90
2019-01-19T03:42:30.000Z,431.42
2019-01-19T03:43:29.994Z,431.55
2019-01-19T03:44:29.974Z,431.07
2019-01-19T03:45:29.959Z,431.30
2019-01-19T03:46:30.063Z,431.66
2019-01-19T03:47:29.951Z,432.13
2019-01-19T03:48:29.957Z,431.94
2019-01-19T03:49:29.953Z,431.23
2019-01-19T03:50:29.950Z,431.22
2019-01-19T03:51:29.899Z,431.27
2019-01-19T03:52:29.896Z,431.30
2019-01-19T03:53:29.878Z,431.59
2019-01-19T03:54:29.896Z,431.95
2019-01-19T03:55:29.874Z,431.64
2019-01-19T03:56:29.856Z,430.50
2019-01-19T03:57:29.831Z,430.52
2019-01-19T03:58:29.831Z,431.48
2019-01-19T03:59:29.814Z,431.90
2019-01-19T04:00:29.819Z,431.51
2019-01-19T04:01:29.833Z,432.08
2019-01-19T04:02:29.785Z,431.94
2019-01-19T04:03:29.788Z,432.02
2019-01-19T04:04:29.765Z,431.93
2019-01-19T04:05:29.753Z,431.18
2019-01-19T04:06:29.769Z,432.02
2019-01-19T04:07:29.738Z,431.77
2019-01-19T04:08:29.721Z,431.57
2019-01-19T04:09:29.701Z,430.96
2019-01-19T04:10:29.696Z,432.18
2019-01-19T04:11:29.678Z,431.83
2019-01-19T04:12:29.673Z,431.39
2019-01-19T04:13:29.647Z,431.98
2019-01-19T04:14:29.646Z,431.69
2019-01-19T04:15:29.640Z,431.76
2019-01-19T04:16:29.671Z,432.40
2019-01-19T04:17:29.627Z,430.63
2019-01-19T04:18:29.650Z,431.86
2019-01-19T04:19:29.596Z,431.54
2019-01-19T04:20:29.588Z,431.03
2019-01-19T04:21:29.572Z,431.90
2019-01-19T04:22:29.559Z,430.81
2019-01-19T04:23:29.551Z,431.93
2019-01-19T04:24:29.553Z,431.44
2019-01-19T04:25:29.527Z,431.20
2019-01-19T04:26:29.581Z,431.52
2019-01-19T04:27:29.502Z,431.73
2019-01-19T04:28:29.513Z,432.34
2019-01-19T04:29:29.496Z,431.20
2019-01-19T04:30:29.463Z,431.49
2019-01-19T04:31:29.463Z,430.57
2019-01-19T04:32:29.450Z,431.63
2019-01-19T04:33:29.442Z,431.31
2019-01-19T04:34:29.446Z,431.62
2019-01-19T04:35:29.432Z,431.80
2019-01-19T04:36:29.412Z,432.42
2019-01-19T04:37:29.397Z,431.58
2019-01-19T04:38:29.397Z,431.93
2019-01-19T04:39:29.379Z,431.16
2019-01-19T04:40:29.367Z,431.56
2019-01-19T04:41:29.362Z,431.70
2019-01-19T04:42:29.342Z,431.92
2019-01-19T04:43:29.336Z,430.67
2019-01-19T04:44:29.331Z,431.49
2019-01-19T04:45:29.323Z,430.74
2019-01-19T04:46:29.311Z,431.25
2019-01-19T04:47:29.314Z,431.94
2019-01-19T04:48:29.288Z,432.06
2019-01-19T04:49:29.278Z,431.74
2019-01-19T04:50:29.271Z,431.55
2019-01-19T04:51:29.282Z,431.06
2019-01-19T04:52:29.259Z,431.42
2019-01-19T04:53:29.249Z,431.85
2019-01-19T04:54:29.232Z,431.89
2019-01-19T04:55:29.210Z,431.92
2019-01-19T04:56:29.218Z,431.75
2019-01-19T04:57:29.206Z,430.91
2019-01-19T04:58:29.199Z,431.79
2019-01-19T04:59:29.216Z,430.98
2019-01-19T05:00:29.159Z,431.59
2019-01-19T05:01:29.154Z,431.50
2019-01-19T05:02:29.147Z,431.60
2019-01-19T05:03:29.148Z,431.26
2019-01-19T05:04:29.129Z,431.59
2019-01-19T05:05:29.105Z,431.28
2019-01-19T05:06:30.502Z,431.88
2019-01-19T05:07:29.097Z,431.13
2019-01-19T05:08:29.089Z,430.94
2019-01-19T05:09:29.069Z,432.47
2019-01-19T05:10:29.093Z,431.89
2019-01-19T05:11:29.053Z,431.42
2019-01-19T05:12:29.033Z,431.55
2019-01-19T05:13:29.024Z,430.77
2019-01-19T05:14:29.027Z,431.09
2019-01-19T05:15:29.032Z,431.38
2019-01-19T05:16:29.020Z,430.96
2019-01-19T05:17:28.972Z,432.40
2019-01-19T05:18:28.958Z,431.69
2019-01-19T05:19:28.955Z,431.94
2019-01-19T05:20:28.938Z,431.25
2019-01-19T05:21:28.938Z,431.76
2019-01-19T05:22:28.927Z,431.38
2019-01-19T05:23:28.911Z,431.51
2019-01-19T05:24:28.905Z,431.22
2019-01-19T05:25:28.889Z,431.71
2019-01-19T05:26:28.880Z,432.02
2019-01-19T05:27:28.886Z,430.60
2019-01-19T05:28:28.852Z,430.66
2019-01-19T05:29:28.841Z,431.20
2019-01-19T05:30:28.846Z,430.69
2019-01-19T05:31:28.830Z,431.59
2019-01-19T05:32:28.814Z,431.26
2019-01-19T05:33:28.807Z,431.42
2019-01-19T05:34:28.793Z,431.56
2019-01-19T05:35:28.778Z,430.97
2019-01-19T05:36:28.774Z,431.43
2019-01-19T05:37:28.758Z,431.46
2019-01-19T05:38:28.750Z,431.06
2019-01-19T05:39:28.741Z,430.91
2019-01-19T05:40:28.728Z,430.96
2019-01-19T05:41:28.715Z,431.21
2019-01-19T05:42:28.742Z,430.36
2019-01-19T05:43:28.698Z,431.27
2019-01-19T05:44:28.700Z,430.83
2019-01-19T05:45:28.674Z,431.46
2019-01-19T05:46:28.664Z,431.25
2019-01-19T05:47:28.655Z,430.08
2019-01-19T05:48:28.645Z,430.91
2019-01-19T05:49:28.654Z,431.07
2019-01-19T05:50:28.638Z,430.82
2019-01-19T05:51:28.622Z,431.31
2019-01-19T05:52:28.606Z,430.33
2019-01-19T05:53:28.628Z,430.63
2019-01-19T05:54:28.602Z,430.68
2019-01-19T05:55:28.616Z,430.83
2019-01-19T05:56:28.582Z,429.93
2019-01-19T05:57:28.569Z,431.34
2019-01-19T05:58:28.562Z,430.25
2019-01-19T05:59:28.536Z,429.75
2019-01-19T06:00:28.532Z,429.98
2019-01-19T06:01:28.530Z,431.78
2019-01-19T06:02:28.503Z,429.87
2019-01-19T06:03:28.495Z,430.98
2019-01-19T06:04:28.478Z,430.40
2019-01-19T06:05:28.474Z,430.95
2019-01-19T06:06:28.466Z,430.39
2019-01-19T06:07:28.468Z,430.31
2019-01-19T06:08:28.447Z,430.77
2019-01-19T06:09:28.434Z,430.11
2019-01-19T06:10:28.418Z,430.53
2019-01-19T06:11:28.421Z,430.91
2019-01-19T06:12:28.432Z,429.76
2019-01-19T06:13:28.414Z,428.81
2019-01-19T06:14:28.381Z,430.16
2019-01-19T06:15:28.384Z,429.82
2019-01-19T06:16:28.366Z,430.56
2019-01-19T06:17:28.360Z,430.72
2019-01-19T06:18:28.357Z,429.38
2019-01-19T06:19:28.356Z,430.67
2019-01-19T06:20:28.321Z,429.20
2019-01-19T06:21:28.314Z,430.38
2019-01-19T06:22:28.311Z,429.94
2019-01-19T06:23:28.291Z,430.06
2019-01-19T06:24:28.295Z,430.38
2019-01-19T06:25:28.272Z,430.46
2019-01-19T06:26:28.255Z,429.69
2019-01-19T06:27:28.239Z,430.10
2019-01-19T06:28:28.257Z,430.12
2019-01-19T06:29:28.232Z,429.91
2019-01-19T06:30:28.219Z,429.41
2019-01-19T06:31:28.200Z,430.61
2019-01-19T06:32:28.202Z,429.97
2019-01-19T06:33:28.174Z,430.34
2019-01-19T06:34:28.168Z,430.82
2019-01-19T06:35:28.163Z,429.75
2019-01-19T06:36:28.142Z,430.40
2019-01-19T06:37:28.158Z,429.40
2019-01-19T06:38:28.143Z,430.03
2019-01-19T06:39:28.117Z,430.64
2019-01-19T06:40:28.155Z,430.04
2019-01-19T06:41:28.109Z,430.00
2019-01-19T06:42:28.088Z,429.95
2019-01-19T06:43:28.124Z,430.87
2019-01-19T06:44:28.071Z,429.99
2019-01-19T06:45:28.113Z,429.68
2019-01-19T06:46:28.043Z,430.32
2019-01-19T06:47:28.051Z,429.88
2019-01-19T06:48:28.029Z,430.64
2019-01-19T06:49:28.013Z,430.50
2019-01-19T06:50:28.021Z,429.67
2019-01-19T06:51:28.001Z,429.73
2019-01-19T06:52:27.996Z,429.56
2019-01-19T06:53:28.023Z,429.01
2019-01-19T06:54:27.993Z,429.16
2019-01-19T06:55:27.958Z,430.02
2019-01-19T06:56:27.947Z,430.24
2019-01-19T06:57:27.928Z,429.84
2019-01-19T06:58:27.931Z,430.08
2019-01-19T06:59:27.923Z,429.36
2019-01-19T07:00:27.940Z,430.02
2019-01-19T07:01:27.891Z,429.89
2019-01-19T07:02:27.877Z,429.08
2019-01-19T07:03:27.867Z,429.68
2019-01-19T07:04:27.868Z,429.12
2019-01-19T07:05:27.863Z,430.24
2019-01-19T07:06:27.831Z,430.15
2019-01-19T07:07:27.836Z,430.37
2019-01-19T07:08:27.842Z,429.78
2019-01-19T07:09:27.806Z,430.39
2019-01-19T07:10:27.797Z,429.28
2019-01-19T07:11:27.809Z,429.98
2019-01-19T07:12:27.782Z,428.86
2019-01-19T07:13:27.765Z,430.72
2019-01-19T07:14:27.749Z,428.83
2019-01-19T07:15:27.746Z,429.38
2019-01-19T07:16:27.758Z,429.60
2019-01-19T07:17:27.730Z,429.60
2019-01-19T07:18:27.778Z,429.61
2019-01-19T07:19:27.726Z,429.86
2019-01-19T07:20:27.685Z,429.41
2019-01-19T07:21:27.677Z,429.19
2019-01-19T07:22:27.693Z,429.32
2019-01-19T07:23:27.647Z,429.65
2019-01-19T07:24:27.649Z,430.88
2019-01-19T07:25:27.653Z,430.29
2019-01-19T07:26:27.623Z,429.77
2019-01-19T07:27:27.645Z,430.61
2019-01-19T07:28:27.623Z,429.11
2019-01-19T07:29:27.592Z,430.14
2019-01-19T07:30:27.647Z,429.62
2019-01-19T07:31:28.269Z,429.13
2019-01-19T07:32:27.565Z,428.69
2019-01-19T07:33:27.575Z,430.27
2019-01-19T07:34:27.571Z,429.42
2019-01-19T07:35:27.563Z,428.55
2019-01-19T07:36:27.530Z,430.19
2019-01-19T07:37:27.609Z,430.46
2019-01-19T07:38:27.502Z,429.19
2019-01-19T07:39:27.534Z,430.55
2019-01-19T07:40:27.504Z,429.13
2019-01-19T07:41:27.470Z,429.10
2019-01-19T07:42:27.469Z,429.90
2019-01-19T07:43:27.452Z,429.39
2019-01-19T07:44:27.439Z,427.81
2019-01-19T07:45:27.438Z,430.65
2019-01-19T07:46:27.633Z,430.91
2019-01-19T07:47:27.409Z,429.88
2019-01-19T07:48:27.443Z,430.17
2019-01-19T07:49:27.475Z,428.51
2019-01-19T07:50:27.393Z,429.50
2019-01-19T07:51:27.411Z,430.76
2019-01-19T07:52:27.874Z,428.90
2019-01-19T07:53:27.342Z,430.01
2019-01-19T07:54:27.349Z,428.17
2019-01-19T07:55:27.343Z,429.01
2019-01-19T07:56:27.320Z,429.33
2019-01-19T07:57:31.174Z,429.87
2019-01-19T07:58:27.286Z,429.17
2019-01-19T07:59:27.286Z,430.57
2019-01-19T08:00:27.267Z,429.52
2019-01-19T08:01:27.255Z,429.03
2019-01-19T08:02:27.245Z,428.96
2019-01-19T08:03:27.229Z,428.48
2019-01-19T08:04:27.220Z,428.97
2019-01-19T08:05:27.216Z,429.67
2019-01-19T08:06:27.201Z,428.63
2019-01-19T08:07:27.186Z,430.11
2019-01-19T08:08:27.180Z,428.95
2019-01-19T08:09:27.161Z,428.66
2019-01-19T08:10:27.167Z,428.70
2019-01-19T08:11:27.152Z,429.08
2019-01-19T08:12:27.149Z,427.92
2019-01-19T08:13:27.133Z,428.97
2019-01-19T08:14:27.131Z,431.43
2019-01-19T08:15:27.128Z,429.07
2019-01-19T08:16:27.098Z,429.17
2019-01-19T08:17:27.147Z,430.57
2019-01-19T08:18:27.083Z,429.65
2019-01-19T08:19:27.069Z,430.38
2019-01-19T08:20:27.075Z,428.80
2019-01-19T08:21:27.042Z,429.40
2019-01-19T08:22:27.060Z,429.01
2019-01-19T08:23:27.044Z,429.37
2019-01-19T08:24:27.022Z,428.12
2019-01-19T08:25:27.014Z,429.29
2019-01-19T08:26:26.996Z,429.30
2019-01-19T08:27:26.982Z,428.71
2019-01-19T08:28:26.977Z,428.27
2019-01-19T08:29:26.974Z,428.40
2019-01-19T08:30:26.973Z,429.32
2019-01-19T08:31:26.945Z,428.45
2019-01-19T08:32:26.927Z,428.19
2019-01-19T08:33:26.919Z,427.64
2019-01-19T08:34:27.012Z,429.12
2019-01-19T08:35:26.895Z,428.58
2019-01-19T08:36:26.897Z,428.87
2019-01-19T08:37:26.906Z,429.52
2019-01-19T08:38:26.904Z,428.37
2019-01-19T08:39:26.859Z,430.15
2019-01-19T08:40:26.870Z,428.85
2019-01-19T08:41:26.848Z,428.91
2019-01-19T08:42:26.833Z,428.70
2019-01-19T08:43:26.824Z,428.43
2019-01-19T08:44:26.805Z,428.62
2019-01-19T08:45:26.824Z,428.03
2019-01-19T08:46:26.820Z,428.80
2019-01-19T08:47:26.794Z,429.36
2019-01-19T08:48:26.775Z,429.65
2019-01-19T08:49:26.795Z,429.34
2019-01-19T08:50:26.736Z,429.44
2019-01-19T08:51:26.735Z,429.39
2019-01-19T08:52:26.727Z,429.39
2019-01-19T08:53:26.720Z,429.56
2019-01-19T08:54:26.717Z,428.56
2019-01-19T08:55:26.698Z,428.85
2019-01-19T08:56:26.692Z,428.09
2019-01-19T08:57:26.670Z,427.17
2019-01-19T08:58:26.698Z,428.42
2019-01-19T08:59:26.646Z,428.49
2019-01-19T09:00:26.658Z,428.70
2019-01-19T09:01:26.700Z,429.50
2019-01-19T09:02:26.672Z,427.40
2019-01-19T09:03:26.615Z,429.27
2019-01-19T09:04:26.608Z,427.88
2019-01-19T09:05:26.637Z,427.56
2019-01-19T09:06:26.622Z,429.83
2019-01-19T09:07:33.452Z,427.63
2019-01-19T09:08:27.559Z,427.13
2019-01-19T09:09:26.562Z,426.26
2019-01-19T09:10:26.544Z,429.46
2019-01-19T09:11:26.525Z,428.65
2019-01-19T09:12:26.540Z,429.29
2019-01-19T09:13:26.529Z,428.56
2019-01-19T09:14:26.505Z,426.43
2019-01-19T09:15:26.485Z,429.50
2019-01-19T09:16:26.484Z,428.38
2019-01-19T09:17:26.595Z,427.86
2019-01-19T09:18:26.487Z,427.78
2019-01-19T09:19:26.731Z,428.79
2019-01-19T09:20:26.449Z,430.34
2019-01-19T09:21:26.421Z,427.95
2019-01-19T09:22:26.412Z,428.51
2019-01-19T09:23:26.462Z,428.73
2019-01-19T09:24:26.445Z,428.58
2019-01-19T09:25:26.376Z,428.07
2019-01-19T09:26:26.374Z,428.71
2019-01-19T09:27:26.387Z,429.38
2019-01-19T09:28:26.382Z,427.46
2019-01-19T09:29:26.570Z,429.08
2019-01-19T09:30:26.373Z,428.45
2019-01-19T09:31:26.309Z,427.55
2019-01-19T09:32:26.305Z,428.37
2019-01-19T09:33:26.297Z,428.37
2019-01-19T09:34:26.293Z,426.92
2019-01-19T09:35:26.287Z,428.05
2019-01-19T09:36:26.263Z,427.98
2019-01-19T09:37:26.252Z,427.87
2019-01-19T09:38:26.258Z,429.19
2019-01-19T09:39:26.240Z,428.96
2019-01-19T09:40:26.237Z,428.24
2019-01-19T09:41:26.262Z,427.85
2019-01-19T09:42:26.192Z,428.90
2019-01-19T09:43:26.181Z,429.31
2019-01-19T09:44:26.174Z,427.98
2019-01-19T09:45:26.227Z,428.41
2019-01-19T09:46:26.167Z,428.25
2019-01-19T09:47:26.153Z,427.92
2019-01-19T09:48:26.200Z,428.80
2019-01-19T09:49:26.186Z,428.35
2019-01-19T09:50:26.110Z,428.90
2019-01-19T09:51:26.118Z,428.09
2019-01-19T09:52:26.158Z,427.68
2019-01-19T09:53:26.130Z,429.16
2019-01-19T09:54:26.063Z,427.16
2019-01-19T09:55:26.085Z,427.80
2019-01-19T09:56:26.049Z,428.57
2019-01-19T09:57:26.080Z,429.90
2019-01-19T09:58:26.068Z,429.33
2019-01-19T09:59:26.029Z,428.58
2019-01-19T10:00:26.010Z,428.70
2019-01-19T10:01:25.999Z,430.16
2019-01-19T10:02:25.992Z,428.00
2019-01-19T10:03:25.985Z,429.01
2019-01-19T10:04:26.012Z,427.03
2019-01-19T10:05:26.021Z,429.11
2019-01-19T10:06:25.939Z,427.55
2019-01-19T10:07:25.938Z,429.66
2019-01-19T10:08:26.019Z,429.05
2019-01-19T10:09:25.922Z,429.19
2019-01-19T10:10:25.978Z,429.10
2019-01-19T10:11:25.938Z,428.56
2019-01-19T10:12:25.879Z,426.92
2019-01-19T10:13:25.875Z,428.90
2019-01-19T10:14:25.872Z,428.27
2019-01-19T10:15:25.879Z,427.49
2019-01-19T10:16:25.891Z,428.82
2019-01-19T10:17:25.881Z,428.38
2019-01-19T10:18:25.882Z,429.28
2019-01-19T10:19:25.807Z,427.89
2019-01-19T10:20:25.810Z,429.15
2019-01-19T10:21:25.820Z,428.48
2019-01-19T10:22:25.823Z,428.32
2019-01-19T10:23:25.854Z,429.81
2019-01-19T10:24:25.841Z,428.63
2019-01-19T10:25:25.749Z,428.30
2019-01-19T10:26:25.781Z,426.84
2019-01-19T10:27:25.749Z,428.60
2019-01-19T10:28:25.783Z,429.05
2019-01-19T10:29:25.701Z,427.93
2019-01-19T10:30:25.687Z,429.56
2019-01-19T10:31:25.680Z,428.34
2019-01-19T10:32:25.689Z,427.33
2019-01-19T10:33:25.721Z,429.77
2019-01-19T10:34:25.644Z,428.14
2019-01-19T10:35:25.635Z,428.79
2019-01-19T10:36:25.635Z,428.60
2019-01-19T10:37:25.646Z,428.83
2019-01-19T10:38:25.639Z,429.05
2019-01-19T10:39:25.631Z,428.20
2019-01-19T10:40:25.587Z,430.56
2019-01-19T10:41:25.576Z,428.78
2019-01-19T10:42:25.597Z,428.42
2019-01-19T10:43:25.563Z,428.45
2019-01-19T10:44:25.567Z,427.89
2019-01-19T10:45:25.547Z,428.99
2019-01-19T10:46:25.595Z,427.92
2019-01-19T10:47:25.518Z,427.17
2019-01-19T10:48:25.508Z,429.20
2019-01-19T10:49:25.498Z,427.75
2019-01-19T10:50:25.507Z,427.45
2019-01-19T10:51:25.515Z,427.31
2019-01-19T10:52:25.499Z,427.75
2019-01-19T10:53:25.524Z,430.21
2019-01-19T10:54:25.443Z,427.75
2019-01-19T10:55:25.439Z,429.46
2019-01-19T10:56:25.441Z,429.39
2019-01-19T10:57:25.443Z,428.11
2019-01-19T10:58:25.409Z,429.95
2019-01-19T10:59:25.402Z,429.15
2019-01-19T11:00:25.371Z,429.17
2019-01-19T11:01:25.370Z,428.71
2019-01-19T11:02:25.383Z,429.44
2019-01-19T11:03:25.406Z,428.89
2019-01-19T11:04:25.327Z,429.01
2019-01-19T11:05:25.316Z,426.84
2019-01-19T11:06:25.330Z,426.99
2019-01-19T11:07:25.308Z,429.35
2019-01-19T11:08:25.302Z,428.23
2019-01-19T11:09:25.321Z,429.93
2019-01-19T11:10:25.318Z,427.20
2019-01-19T11:11:25.258Z,429.05
2019-01-19T11:12:25.254Z,428.71
2019-01-19T11:13:25.270Z,428.21
2019-01-19T11:14:25.263Z,427.84
2019-01-19T11:15:25.258Z,429.17
2019-01-19T11:16:25.207Z,430.71
2019-01-19T11:17:25.198Z,427.21
2019-01-19T11:18:25.183Z,429.76
2019-01-19T11:19:25.204Z,428.60
2019-01-19T11:20:25.716Z,429.61
2019-01-19T11:21:25.153Z,429.96
2019-01-19T11:22:25.142Z,430.17
2019-01-19T11:23:25.166Z,429.87
2019-01-19T11:24:25.155Z,428.50
2019-01-19T11:25:25.124Z,428.48
2019-01-19T11:26:25.116Z,428.52
2019-01-19T11:27:25.087Z,428.25
2019-01-19T11:28:25.079Z,428.77
2019-01-19T11:29:25.078Z,428.90
2019-01-19T11:30:25.086Z,429.64
2019-01-19T11:31:25.078Z,428.31
2019-01-19T11:32:25.093Z,429.26
2019-01-19T11:33:25.021Z,428.52
2019-01-19T11:34:25.044Z,428.58
2019-01-19T11:35:25.025Z,427.43
2019-01-19T11:36:25.008Z,428.38
2019-01-19T11:37:25.028Z,429.35
2019-01-19T11:38:25.049Z,428.65
2019-01-19T11:39:24.969Z,427.62
2019-01-19T11:40:24.957Z,430.00
2019-01-19T11:41:24.948Z,427.49
2019-01-19T11:42:24.933Z,429.63
2019-01-19T11:43:24.929Z,429.85
2019-01-19T11:44:24.923Z,427.67
2019-01-19T11:45:24.901Z,428.73
2019-01-19T11:46:24.889Z,428.65
2019-01-19T11:47:24.897Z,432.34
2019-01-19T11:48:24.897Z,428.79
2019-01-19T11:49:24.887Z,430.43
2019-01-19T11:50:26.061Z,427.64
2019-01-19T11:51:24.838Z,430.63
2019-01-19T11:52:24.831Z,428.35
2019-01-19T11:53:24.822Z,429.10
2019-01-19T11:54:24.818Z,429.47
2019-01-19T11:55:24.797Z,427.79
2019-01-19T11:56:24.790Z,428.48
2019-01-19T11:57:24.769Z,429.32
2019-01-19T11:58:24.762Z,430.21
2019-01-19T11:59:24.767Z,430.22
2019-01-19T12:00:24.770Z,428.81
2019-01-19T12:01:24.768Z,429.50
2019-01-19T12:02:24.714Z,428.93
2019-01-19T12:03:24.709Z,429.10
2019-01-19T12:04:24.698Z,428.31
2019-01-19T12:05:24.696Z,429.07
2019-01-19T12:06:24.701Z,429.47
2019-01-19T12:07:24.670Z,428.19
2019-01-19T12:08:24.681Z,429.34
2019-01-19T12:09:24.687Z,430.01
2019-01-19T12:10:24.633Z,429.80
2019-01-19T12:11:24.634Z,429.65
2019-01-19T12:12:24.631Z,428.79
2019-01-19T12:13:24.641Z,429.87
2019-01-19T12:14:24.602Z,429.37
2019-01-19T12:15:24.591Z,428.62
2019-01-19T12:16:24.575Z,429.98
2019-01-19T12:17:24.579Z,430.27
2019-01-19T12:18:24.564Z,431.03
2019-01-19T12:19:24.586Z,428.69
2019-01-19T12:20:24.535Z,428.19
2019-01-19T12:21:24.523Z,430.02
2019-01-19T12:22:24.522Z,428.80
2019-01-19T12:23:24.518Z,429.65
2019-01-19T12:24:24.529Z,429.00
2019-01-19T12:25:24.477Z,428.45
2019-01-19T12:26:24.473Z,429.45
2019-01-19T12:27:24.462Z,430.91
2019-01-19T12:28:24.455Z,428.25